sensor_id;sensor_type;location;lat;lon;timestamp;P1;durP1;ratioP1;P2;durP2;ratioP2
13693;SDS011;6919;52.344;14.518;2022-07-29T00:02:14;4.37;;;3.20;;
13693;SDS011;6919;52.344;14.518;2022-07-29T00:04:42;6.73;;;3.33;;
13693;SDS011;6919;52.344;14.518;2022-07-29T00:07:12;10.13;;;4.17;;
13693;SDS011;6919;52.344;14.518;2022-07-29T00:09:40;6.03;;;3.80;;
13693;SDS011;6919;52.344;14.518;2022-07-29T00:12:17;7.63;;;3.40;;
13693;SDS011;6919;52.344;14.518;2022-07-29T00:14:51;5.97;;;3.07;;
13693;SDS011;6919;52.344;14.518;2022-07-29T00:17:21;5.73;;;3.47;;
13693;SDS011;6919;52.344;14.518;2022-07-29T00:19:50;7.70;;;3.57;;
13693;SDS011;6919;52.344;14.518;2022-07-29T00:22:20;7.43;;;3.73;;
13693;SDS011;6919;52.344;14.518;2022-07-29T00:24:48;8.33;;;4.00;;
13693;SDS011;6919;52.344;14.518;2022-07-29T00:27:16;7.33;;;3.93;;
13693;SDS011;6919;52.344;14.518;2022-07-29T00:29:45;6.07;;;3.73;;
13693;SDS011;6919;52.344;14.518;2022-07-29T00:32:13;8.73;;;3.90;;
13693;SDS011;6919;52.344;14.518;2022-07-29T00:34:41;7.80;;;4.00;;
13693;SDS011;6919;52.344;14.518;2022-07-29T00:37:28;5.67;;;4.00;;
13693;SDS011;6919;52.344;14.518;2022-07-29T00:39:59;9.83;;;4.23;;
13693;SDS011;6919;52.344;14.518;2022-07-29T00:42:28;13.73;;;4.37;;
13693;SDS011;6919;52.344;14.518;2022-07-29T00:44:56;11.83;;;4.13;;
13693;SDS011;6919;52.344;14.518;2022-07-29T00:47:24;8.47;;;3.83;;
13693;SDS011;6919;52.344;14.518;2022-07-29T00:49:52;4.73;;;3.20;;
13693;SDS011;6919;52.344;14.518;2022-07-29T00:52:20;5.10;;;3.73;;
13693;SDS011;6919;52.344;14.518;2022-07-29T00:54:50;10.70;;;4.20;;
13693;SDS011;6919;52.344;14.518;2022-07-29T00:57:18;5.20;;;3.50;;
13693;SDS011;6919;52.344;14.518;2022-07-29T00:59:47;6.43;;;3.80;;
13693;SDS011;6919;52.344;14.518;2022-07-29T01:02:16;12.10;;;3.90;;
13693;SDS011;6919;52.344;14.518;2022-07-29T01:04:44;6.87;;;4.00;;
13693;SDS011;6919;52.344;14.518;2022-07-29T01:07:12;8.03;;;3.60;;
13693;SDS011;6919;52.344;14.518;2022-07-29T01:09:40;9.37;;;3.93;;
13693;SDS011;6919;52.344;14.518;2022-07-29T01:12:15;6.57;;;3.30;;
13693;SDS011;6919;52.344;14.518;2022-07-29T01:14:48;4.83;;;2.77;;
13693;SDS011;6919;52.344;14.518;2022-07-29T01:17:19;5.33;;;3.10;;
13693;SDS011;6919;52.344;14.518;2022-07-29T01:19:56;7.13;;;3.43;;
13693;SDS011;6919;52.344;14.518;2022-07-29T01:22:36;10.67;;;3.43;;
13693;SDS011;6919;52.344;14.518;2022-07-29T01:28:42;8.10;;;3.40;;
13693;SDS011;6919;52.344;14.518;2022-07-29T01:31:31;5.43;;;3.27;;
13693;SDS011;6919;52.344;14.518;2022-07-29T01:34:28;6.53;;;3.00;;
13693;SDS011;6919;52.344;14.518;2022-07-29T01:37:08;7.10;;;3.13;;
13693;SDS011;6919;52.344;14.518;2022-07-29T01:39:45;3.90;;;2.90;;
13693;SDS011;6919;52.344;14.518;2022-07-29T01:42:20;9.17;;;3.40;;
13693;SDS011;6919;52.344;14.518;2022-07-29T01:44:59;6.43;;;3.17;;
13693;SDS011;6919;52.344;14.518;2022-07-29T01:47:38;10.47;;;3.23;;
13693;SDS011;6919;52.344;14.518;2022-07-29T01:50:12;5.23;;;3.10;;
13693;SDS011;6919;52.344;14.518;2022-07-29T01:52:45;8.13;;;3.07;;
13693;SDS011;6919;52.344;14.518;2022-07-29T01:55:22;7.03;;;3.17;;
13693;SDS011;6919;52.344;14.518;2022-07-29T01:57:58;3.77;;;3.10;;
13693;SDS011;6919;52.344;14.518;2022-07-29T02:00:32;6.13;;;3.40;;
13693;SDS011;6919;52.344;14.518;2022-07-29T02:03:04;6.47;;;3.30;;
13693;SDS011;6919;52.344;14.518;2022-07-29T02:05:39;6.07;;;3.43;;
13693;SDS011;6919;52.344;14.518;2022-07-29T02:08:12;8.63;;;3.63;;
13693;SDS011;6919;52.344;14.518;2022-07-29T02:10:44;7.73;;;3.97;;
13693;SDS011;6919;52.344;14.518;2022-07-29T02:13:14;4.80;;;3.57;;
13693;SDS011;6919;52.344;14.518;2022-07-29T02:15:47;5.80;;;3.27;;
13693;SDS011;6919;52.344;14.518;2022-07-29T02:18:20;6.87;;;3.03;;
13693;SDS011;6919;52.344;14.518;2022-07-29T02:20:53;8.70;;;3.67;;
13693;SDS011;6919;52.344;14.518;2022-07-29T02:23:25;7.20;;;3.43;;
13693;SDS011;6919;52.344;14.518;2022-07-29T02:25:56;7.20;;;3.10;;
13693;SDS011;6919;52.344;14.518;2022-07-29T02:28:26;5.43;;;2.83;;
13693;SDS011;6919;52.344;14.518;2022-07-29T02:30:59;8.23;;;3.20;;
13693;SDS011;6919;52.344;14.518;2022-07-29T02:33:30;6.17;;;3.10;;
13693;SDS011;6919;52.344;14.518;2022-07-29T02:36:01;6.50;;;3.40;;
13693;SDS011;6919;52.344;14.518;2022-07-29T02:38:30;8.17;;;3.43;;
13693;SDS011;6919;52.344;14.518;2022-07-29T02:41:19;9.53;;;3.37;;
13693;SDS011;6919;52.344;14.518;2022-07-29T02:43:53;7.00;;;3.07;;
13693;SDS011;6919;52.344;14.518;2022-07-29T02:46:30;4.83;;;2.90;;
13693;SDS011;6919;52.344;14.518;2022-07-29T02:49:04;5.70;;;3.27;;
13693;SDS011;6919;52.344;14.518;2022-07-29T02:51:41;5.20;;;2.83;;
13693;SDS011;6919;52.344;14.518;2022-07-29T02:54:19;7.60;;;3.27;;
13693;SDS011;6919;52.344;14.518;2022-07-29T02:56:59;4.30;;;2.80;;
13693;SDS011;6919;52.344;14.518;2022-07-29T02:59:34;8.60;;;2.87;;
13693;SDS011;6919;52.344;14.518;2022-07-29T03:02:10;8.60;;;2.97;;
13693;SDS011;6919;52.344;14.518;2022-07-29T03:04:41;4.90;;;2.93;;
13693;SDS011;6919;52.344;14.518;2022-07-29T03:07:13;7.40;;;3.40;;
13693;SDS011;6919;52.344;14.518;2022-07-29T03:09:42;11.83;;;3.23;;
13693;SDS011;6919;52.344;14.518;2022-07-29T03:12:12;5.07;;;2.90;;
13693;SDS011;6919;52.344;14.518;2022-07-29T03:14:42;4.30;;;2.70;;
13693;SDS011;6919;52.344;14.518;2022-07-29T03:17:13;6.23;;;3.10;;
13693;SDS011;6919;52.344;14.518;2022-07-29T03:19:43;5.80;;;2.93;;
13693;SDS011;6919;52.344;14.518;2022-07-29T03:22:12;4.57;;;2.67;;
13693;SDS011;6919;52.344;14.518;2022-07-29T03:24:44;4.80;;;2.80;;
13693;SDS011;6919;52.344;14.518;2022-07-29T03:27:12;6.97;;;3.30;;
13693;SDS011;6919;52.344;14.518;2022-07-29T03:29:41;5.13;;;2.93;;
13693;SDS011;6919;52.344;14.518;2022-07-29T03:32:16;5.23;;;2.93;;
13693;SDS011;6919;52.344;14.518;2022-07-29T03:34:50;9.83;;;2.80;;
13693;SDS011;6919;52.344;14.518;2022-07-29T03:37:18;4.50;;;2.80;;
13693;SDS011;6919;52.344;14.518;2022-07-29T03:39:47;4.83;;;2.90;;
13693;SDS011;6919;52.344;14.518;2022-07-29T03:42:19;3.83;;;2.60;;
13693;SDS011;6919;52.344;14.518;2022-07-29T03:44:50;9.30;;;3.50;;
13693;SDS011;6919;52.344;14.518;2022-07-29T03:47:24;10.20;;;3.30;;
13693;SDS011;6919;52.344;14.518;2022-07-29T03:50:15;4.80;;;2.70;;
13693;SDS011;6919;52.344;14.518;2022-07-29T03:52:47;6.37;;;3.30;;
13693;SDS011;6919;52.344;14.518;2022-07-29T03:55:16;6.03;;;3.13;;
13693;SDS011;6919;52.344;14.518;2022-07-29T03:57:45;6.00;;;3.13;;
13693;SDS011;6919;52.344;14.518;2022-07-29T04:00:15;5.83;;;2.80;;
13693;SDS011;6919;52.344;14.518;2022-07-29T04:02:45;7.73;;;2.97;;
13693;SDS011;6919;52.344;14.518;2022-07-29T04:05:15;7.13;;;2.93;;
13693;SDS011;6919;52.344;14.518;2022-07-29T04:07:45;7.60;;;2.63;;
13693;SDS011;6919;52.344;14.518;2022-07-29T04:10:17;9.73;;;3.20;;
13693;SDS011;6919;52.344;14.518;2022-07-29T04:12:55;7.93;;;2.67;;
13693;SDS011;6919;52.344;14.518;2022-07-29T04:15:24;7.80;;;3.80;;
13693;SDS011;6919;52.344;14.518;2022-07-29T04:17:58;4.33;;;2.73;;
13693;SDS011;6919;52.344;14.518;2022-07-29T04:20:26;3.97;;;2.87;;
13693;SDS011;6919;52.344;14.518;2022-07-29T04:22:55;4.60;;;2.70;;
13693;SDS011;6919;52.344;14.518;2022-07-29T04:25:23;7.40;;;3.10;;
13693;SDS011;6919;52.344;14.518;2022-07-29T04:27:51;7.70;;;3.30;;
13693;SDS011;6919;52.344;14.518;2022-07-29T04:30:29;4.10;;;2.80;;
13693;SDS011;6919;52.344;14.518;2022-07-29T04:33:01;7.17;;;2.77;;
13693;SDS011;6919;52.344;14.518;2022-07-29T04:35:33;5.07;;;3.27;;
13693;SDS011;6919;52.344;14.518;2022-07-29T04:38:15;5.53;;;2.50;;
13693;SDS011;6919;52.344;14.518;2022-07-29T04:40:43;7.47;;;3.17;;
13693;SDS011;6919;52.344;14.518;2022-07-29T04:43:12;8.00;;;3.07;;
13693;SDS011;6919;52.344;14.518;2022-07-29T04:45:41;7.57;;;3.43;;
13693;SDS011;6919;52.344;14.518;2022-07-29T04:48:10;3.57;;;2.87;;
13693;SDS011;6919;52.344;14.518;2022-07-29T04:50:39;6.70;;;2.70;;
13693;SDS011;6919;52.344;14.518;2022-07-29T04:53:08;5.90;;;2.70;;
13693;SDS011;6919;52.344;14.518;2022-07-29T04:55:36;8.43;;;2.63;;
13693;SDS011;6919;52.344;14.518;2022-07-29T04:58:04;4.63;;;2.80;;
13693;SDS011;6919;52.344;14.518;2022-07-29T05:00:33;9.93;;;3.33;;
13693;SDS011;6919;52.344;14.518;2022-07-29T05:03:02;7.40;;;3.03;;
13693;SDS011;6919;52.344;14.518;2022-07-29T05:05:32;5.87;;;2.90;;
13693;SDS011;6919;52.344;14.518;2022-07-29T05:08:00;3.73;;;2.87;;
13693;SDS011;6919;52.344;14.518;2022-07-29T05:10:28;5.70;;;2.77;;
13693;SDS011;6919;52.344;14.518;2022-07-29T05:12:56;8.53;;;2.70;;
13693;SDS011;6919;52.344;14.518;2022-07-29T05:15:25;10.93;;;3.27;;
13693;SDS011;6919;52.344;14.518;2022-07-29T05:17:53;6.30;;;2.87;;
13693;SDS011;6919;52.344;14.518;2022-07-29T05:20:22;9.23;;;3.20;;
13693;SDS011;6919;52.344;14.518;2022-07-29T05:22:55;4.33;;;3.00;;
13693;SDS011;6919;52.344;14.518;2022-07-29T05:25:24;5.20;;;3.20;;
13693;SDS011;6919;52.344;14.518;2022-07-29T05:28:09;6.03;;;2.80;;
13693;SDS011;6919;52.344;14.518;2022-07-29T05:30:38;5.63;;;2.60;;
13693;SDS011;6919;52.344;14.518;2022-07-29T05:33:06;4.40;;;2.97;;
13693;SDS011;6919;52.344;14.518;2022-07-29T05:35:54;5.43;;;3.00;;
13693;SDS011;6919;52.344;14.518;2022-07-29T05:38:28;8.17;;;3.53;;
13693;SDS011;6919;52.344;14.518;2022-07-29T05:40:57;5.10;;;2.97;;
13693;SDS011;6919;52.344;14.518;2022-07-29T05:43:26;5.60;;;3.07;;
13693;SDS011;6919;52.344;14.518;2022-07-29T05:45:54;6.43;;;3.00;;
13693;SDS011;6919;52.344;14.518;2022-07-29T05:48:23;7.00;;;3.30;;
13693;SDS011;6919;52.344;14.518;2022-07-29T05:50:53;5.93;;;2.97;;
13693;SDS011;6919;52.344;14.518;2022-07-29T05:53:21;9.63;;;2.90;;
13693;SDS011;6919;52.344;14.518;2022-07-29T05:55:51;5.23;;;3.20;;
13693;SDS011;6919;52.344;14.518;2022-07-29T05:58:20;7.63;;;2.87;;
13693;SDS011;6919;52.344;14.518;2022-07-29T06:00:48;7.07;;;3.33;;
13693;SDS011;6919;52.344;14.518;2022-07-29T06:03:16;5.23;;;3.40;;
13693;SDS011;6919;52.344;14.518;2022-07-29T06:05:44;8.07;;;3.33;;
13693;SDS011;6919;52.344;14.518;2022-07-29T06:08:12;4.40;;;3.10;;
13693;SDS011;6919;52.344;14.518;2022-07-29T06:10:41;5.67;;;2.77;;
13693;SDS011;6919;52.344;14.518;2022-07-29T06:13:10;6.43;;;2.63;;
13693;SDS011;6919;52.344;14.518;2022-07-29T06:15:39;8.10;;;3.27;;
13693;SDS011;6919;52.344;14.518;2022-07-29T06:18:07;4.77;;;2.50;;
13693;SDS011;6919;52.344;14.518;2022-07-29T06:20:36;8.70;;;2.67;;
13693;SDS011;6919;52.344;14.518;2022-07-29T06:23:04;5.50;;;2.60;;
13693;SDS011;6919;52.344;14.518;2022-07-29T06:25:34;6.47;;;2.60;;
13693;SDS011;6919;52.344;14.518;2022-07-29T06:28:03;5.57;;;2.53;;
13693;SDS011;6919;52.344;14.518;2022-07-29T06:30:33;6.30;;;3.10;;
13693;SDS011;6919;52.344;14.518;2022-07-29T06:33:01;5.60;;;2.77;;
13693;SDS011;6919;52.344;14.518;2022-07-29T06:35:32;7.67;;;3.03;;
13693;SDS011;6919;52.344;14.518;2022-07-29T06:38:07;5.23;;;2.50;;
13693;SDS011;6919;52.344;14.518;2022-07-29T06:40:57;5.20;;;2.60;;
13693;SDS011;6919;52.344;14.518;2022-07-29T06:43:30;5.53;;;2.63;;
13693;SDS011;6919;52.344;14.518;2022-07-29T06:46:19;3.50;;;2.60;;
13693;SDS011;6919;52.344;14.518;2022-07-29T06:48:48;6.57;;;2.43;;
13693;SDS011;6919;52.344;14.518;2022-07-29T06:51:18;5.30;;;2.63;;
13693;SDS011;6919;52.344;14.518;2022-07-29T06:53:49;5.40;;;2.40;;
13693;SDS011;6919;52.344;14.518;2022-07-29T06:56:25;4.27;;;2.40;;
13693;SDS011;6919;52.344;14.518;2022-07-29T06:58:53;7.07;;;2.60;;
13693;SDS011;6919;52.344;14.518;2022-07-29T07:01:23;7.43;;;2.87;;
13693;SDS011;6919;52.344;14.518;2022-07-29T07:03:51;11.40;;;3.13;;
13693;SDS011;6919;52.344;14.518;2022-07-29T07:06:19;5.80;;;2.60;;
13693;SDS011;6919;52.344;14.518;2022-07-29T07:08:48;4.40;;;2.90;;
13693;SDS011;6919;52.344;14.518;2022-07-29T07:11:16;9.57;;;2.80;;
13693;SDS011;6919;52.344;14.518;2022-07-29T07:13:44;4.10;;;2.87;;
13693;SDS011;6919;52.344;14.518;2022-07-29T07:16:12;6.03;;;2.90;;
13693;SDS011;6919;52.344;14.518;2022-07-29T07:18:42;8.37;;;2.77;;
13693;SDS011;6919;52.344;14.518;2022-07-29T07:21:11;6.47;;;3.03;;
13693;SDS011;6919;52.344;14.518;2022-07-29T07:23:44;6.83;;;2.40;;
13693;SDS011;6919;52.344;14.518;2022-07-29T07:26:13;7.17;;;3.10;;
13693;SDS011;6919;52.344;14.518;2022-07-29T07:28:41;11.67;;;3.00;;
13693;SDS011;6919;52.344;14.518;2022-07-29T07:31:09;4.77;;;2.70;;
13693;SDS011;6919;52.344;14.518;2022-07-29T07:33:38;6.03;;;2.50;;
13693;SDS011;6919;52.344;14.518;2022-07-29T07:36:08;6.33;;;2.67;;
13693;SDS011;6919;52.344;14.518;2022-07-29T07:38:36;3.83;;;2.50;;
13693;SDS011;6919;52.344;14.518;2022-07-29T07:41:04;4.00;;;2.53;;
13693;SDS011;6919;52.344;14.518;2022-07-29T07:43:33;4.00;;;2.40;;
13693;SDS011;6919;52.344;14.518;2022-07-29T07:46:01;5.07;;;2.90;;
13693;SDS011;6919;52.344;14.518;2022-07-29T07:48:29;8.00;;;2.70;;
13693;SDS011;6919;52.344;14.518;2022-07-29T07:50:57;6.10;;;2.70;;
13693;SDS011;6919;52.344;14.518;2022-07-29T07:53:27;4.97;;;2.83;;
13693;SDS011;6919;52.344;14.518;2022-07-29T07:55:57;8.03;;;3.33;;
13693;SDS011;6919;52.344;14.518;2022-07-29T07:58:36;6.27;;;2.70;;
13693;SDS011;6919;52.344;14.518;2022-07-29T08:01:05;4.50;;;2.23;;
13693;SDS011;6919;52.344;14.518;2022-07-29T08:03:33;7.23;;;3.20;;
13693;SDS011;6919;52.344;14.518;2022-07-29T08:06:02;5.37;;;2.60;;
13693;SDS011;6919;52.344;14.518;2022-07-29T08:08:32;9.60;;;2.93;;
13693;SDS011;6919;52.344;14.518;2022-07-29T08:11:00;9.63;;;2.87;;
13693;SDS011;6919;52.344;14.518;2022-07-29T08:13:34;9.43;;;2.70;;
13693;SDS011;6919;52.344;14.518;2022-07-29T08:16:05;6.07;;;2.67;;
13693;SDS011;6919;52.344;14.518;2022-07-29T08:18:42;6.20;;;2.90;;
13693;SDS011;6919;52.344;14.518;2022-07-29T08:21:12;9.87;;;2.47;;
13693;SDS011;6919;52.344;14.518;2022-07-29T08:23:43;8.03;;;2.77;;
13693;SDS011;6919;52.344;14.518;2022-07-29T08:26:24;4.17;;;2.57;;
13693;SDS011;6919;52.344;14.518;2022-07-29T08:28:52;6.17;;;2.40;;
13693;SDS011;6919;52.344;14.518;2022-07-29T08:31:20;7.43;;;2.57;;
13693;SDS011;6919;52.344;14.518;2022-07-29T08:33:49;5.77;;;1.97;;
13693;SDS011;6919;52.344;14.518;2022-07-29T08:36:17;4.23;;;2.33;;
13693;SDS011;6919;52.344;14.518;2022-07-29T08:38:48;6.33;;;2.23;;
13693;SDS011;6919;52.344;14.518;2022-07-29T08:41:17;4.67;;;1.93;;
13693;SDS011;6919;52.344;14.518;2022-07-29T08:43:46;7.23;;;2.30;;
13693;SDS011;6919;52.344;14.518;2022-07-29T08:46:14;8.00;;;2.20;;
13693;SDS011;6919;52.344;14.518;2022-07-29T08:48:43;12.30;;;3.07;;
13693;SDS011;6919;52.344;14.518;2022-07-29T08:51:12;8.67;;;2.10;;
13693;SDS011;6919;52.344;14.518;2022-07-29T08:53:42;7.40;;;2.27;;
13693;SDS011;6919;52.344;14.518;2022-07-29T08:56:17;4.03;;;2.07;;
13693;SDS011;6919;52.344;14.518;2022-07-29T08:58:46;7.70;;;2.77;;
13693;SDS011;6919;52.344;14.518;2022-07-29T09:01:20;5.30;;;2.47;;
13693;SDS011;6919;52.344;14.518;2022-07-29T09:04:09;7.10;;;2.23;;
13693;SDS011;6919;52.344;14.518;2022-07-29T09:06:42;4.90;;;1.87;;
13693;SDS011;6919;52.344;14.518;2022-07-29T09:09:14;5.67;;;2.47;;
13693;SDS011;6919;52.344;14.518;2022-07-29T09:11:44;8.63;;;2.13;;
13693;SDS011;6919;52.344;14.518;2022-07-29T09:14:13;6.53;;;2.40;;
13693;SDS011;6919;52.344;14.518;2022-07-29T09:16:49;3.77;;;2.17;;
13693;SDS011;6919;52.344;14.518;2022-07-29T09:19:24;5.93;;;2.37;;
13693;SDS011;6919;52.344;14.518;2022-07-29T09:21:56;5.37;;;2.10;;
13693;SDS011;6919;52.344;14.518;2022-07-29T09:24:42;3.43;;;2.13;;
13693;SDS011;6919;52.344;14.518;2022-07-29T09:27:19;7.83;;;2.43;;
13693;SDS011;6919;52.344;14.518;2022-07-29T09:29:56;6.77;;;2.70;;
13693;SDS011;6919;52.344;14.518;2022-07-29T09:32:25;4.80;;;1.93;;
13693;SDS011;6919;52.344;14.518;2022-07-29T09:35:14;7.82;;;2.78;;
13693;SDS011;6919;52.344;14.518;2022-07-29T09:37:45;6.78;;;2.45;;
13693;SDS011;6919;52.344;14.518;2022-07-29T09:40:15;6.13;;;2.50;;
13693;SDS011;6919;52.344;14.518;2022-07-29T09:42:47;8.15;;;2.75;;
13693;SDS011;6919;52.344;14.518;2022-07-29T09:45:26;5.25;;;2.10;;
13693;SDS011;6919;52.344;14.518;2022-07-29T09:47:56;4.43;;;2.05;;
13693;SDS011;6919;52.344;14.518;2022-07-29T09:50:35;3.85;;;2.17;;
13693;SDS011;6919;52.344;14.518;2022-07-29T09:53:06;6.45;;;2.42;;
13693;SDS011;6919;52.344;14.518;2022-07-29T09:55:46;4.97;;;2.40;;
13693;SDS011;6919;52.344;14.518;2022-07-29T09:58:19;2.92;;;2.25;;
13693;SDS011;6919;52.344;14.518;2022-07-29T10:00:49;5.50;;;1.98;;
13693;SDS011;6919;52.344;14.518;2022-07-29T10:03:19;5.50;;;2.75;;
13693;SDS011;6919;52.344;14.518;2022-07-29T10:06:03;3.42;;;2.10;;
13693;SDS011;6919;52.344;14.518;2022-07-29T10:08:33;4.82;;;2.20;;
13693;SDS011;6919;52.344;14.518;2022-07-29T10:11:11;3.95;;;2.08;;
13693;SDS011;6919;52.344;14.518;2022-07-29T10:13:43;6.95;;;2.30;;
13693;SDS011;6919;52.344;14.518;2022-07-29T10:16:13;3.75;;;2.28;;
13693;SDS011;6919;52.344;14.518;2022-07-29T10:18:44;5.10;;;2.10;;
13693;SDS011;6919;52.344;14.518;2022-07-29T10:21:13;3.65;;;2.15;;
13693;SDS011;6919;52.344;14.518;2022-07-29T10:24:01;4.83;;;2.37;;
13693;SDS011;6919;52.344;14.518;2022-07-29T10:26:39;5.83;;;2.37;;
13693;SDS011;6919;52.344;14.518;2022-07-29T10:29:10;5.73;;;2.23;;
13693;SDS011;6919;52.344;14.518;2022-07-29T10:31:40;8.60;;;2.77;;
13693;SDS011;6919;52.344;14.518;2022-07-29T10:34:20;5.65;;;2.20;;
13693;SDS011;6919;52.344;14.518;2022-07-29T10:37:05;3.15;;;2.30;;
13693;SDS011;6919;52.344;14.518;2022-07-29T10:39:48;3.22;;;2.15;;
13693;SDS011;6919;52.344;14.518;2022-07-29T10:42:53;4.85;;;2.50;;
13693;SDS011;6919;52.344;14.518;2022-07-29T10:45:29;9.15;;;2.25;;
13693;SDS011;6919;52.344;14.518;2022-07-29T10:48:05;7.47;;;2.60;;
13693;SDS011;6919;52.344;14.518;2022-07-29T10:56:25;4.18;;;2.10;;
13693;SDS011;6919;52.344;14.518;2022-07-29T11:02:03;5.97;;;2.20;;
13693;SDS011;6919;52.344;14.518;2022-07-29T11:05:16;4.82;;;1.88;;
13693;SDS011;6919;52.344;14.518;2022-07-29T11:10:53;4.32;;;2.53;;
13693;SDS011;6919;52.344;14.518;2022-07-29T11:14:09;4.32;;;2.10;;
13693;SDS011;6919;52.344;14.518;2022-07-29T11:19:35;6.57;;;2.38;;
13693;SDS011;6919;52.344;14.518;2022-07-29T11:22:12;4.90;;;2.38;;
13693;SDS011;6919;52.344;14.518;2022-07-29T11:25:13;7.53;;;2.50;;
13693;SDS011;6919;52.344;14.518;2022-07-29T11:27:42;5.20;;;2.13;;
13693;SDS011;6919;52.344;14.518;2022-07-29T11:30:13;3.60;;;2.30;;
13693;SDS011;6919;52.344;14.518;2022-07-29T11:32:43;3.83;;;2.10;;
13693;SDS011;6919;52.344;14.518;2022-07-29T11:35:16;3.35;;;1.90;;
13693;SDS011;6919;52.344;14.518;2022-07-29T11:43:51;5.93;;;2.10;;
13693;SDS011;6919;52.344;14.518;2022-07-29T11:49:23;4.32;;;1.90;;
13693;SDS011;6919;52.344;14.518;2022-07-29T11:51:59;1.88;;;1.60;;
13693;SDS011;6919;52.344;14.518;2022-07-29T11:54:30;2.88;;;1.77;;
13693;SDS011;6919;52.344;14.518;2022-07-29T11:57:21;4.95;;;2.08;;
13693;SDS011;6919;52.344;14.518;2022-07-29T12:00:03;4.95;;;2.17;;
13693;SDS011;6919;52.344;14.518;2022-07-29T12:02:38;3.95;;;2.00;;
13693;SDS011;6919;52.344;14.518;2022-07-29T12:05:13;3.55;;;2.10;;
13693;SDS011;6919;52.344;14.518;2022-07-29T12:08:07;4.13;;;1.98;;
13693;SDS011;6919;52.344;14.518;2022-07-29T12:10:41;5.60;;;1.80;;
13693;SDS011;6919;52.344;14.518;2022-07-29T12:13:10;5.05;;;2.17;;
13693;SDS011;6919;52.344;14.518;2022-07-29T12:15:39;3.90;;;2.10;;
13693;SDS011;6919;52.344;14.518;2022-07-29T12:18:16;4.25;;;1.80;;
13693;SDS011;6919;52.344;14.518;2022-07-29T12:20:56;10.70;;;2.08;;
13693;SDS011;6919;52.344;14.518;2022-07-29T12:23:30;4.07;;;1.73;;
13693;SDS011;6919;52.344;14.518;2022-07-29T12:26:03;2.42;;;1.80;;
13693;SDS011;6919;52.344;14.518;2022-07-29T12:28:46;8.60;;;2.30;;
13693;SDS011;6919;52.344;14.518;2022-07-29T12:31:16;1.90;;;1.60;;
13693;SDS011;6919;52.344;14.518;2022-07-29T12:34:04;3.35;;;2.13;;
13693;SDS011;6919;52.344;14.518;2022-07-29T12:36:32;5.60;;;2.10;;
13693;SDS011;6919;52.344;14.518;2022-07-29T12:39:02;3.25;;;2.17;;
13693;SDS011;6919;52.344;14.518;2022-07-29T12:41:31;3.60;;;1.70;;
13693;SDS011;6919;52.344;14.518;2022-07-29T12:43:59;3.90;;;2.08;;
13693;SDS011;6919;52.344;14.518;2022-07-29T12:46:28;4.30;;;1.85;;
13693;SDS011;6919;52.344;14.518;2022-07-29T12:48:56;3.22;;;2.10;;
13693;SDS011;6919;52.344;14.518;2022-07-29T12:51:28;4.68;;;1.95;;
13693;SDS011;6919;52.344;14.518;2022-07-29T12:54:02;3.03;;;2.03;;
13693;SDS011;6919;52.344;14.518;2022-07-29T12:56:34;3.25;;;1.75;;
13693;SDS011;6919;52.344;14.518;2022-07-29T12:59:11;5.72;;;1.70;;
13693;SDS011;6919;52.344;14.518;2022-07-29T13:01:42;2.50;;;2.00;;
13693;SDS011;6919;52.344;14.518;2022-07-29T13:04:10;2.63;;;1.77;;
13693;SDS011;6919;52.344;14.518;2022-07-29T13:06:57;4.93;;;2.00;;
13693;SDS011;6919;52.344;14.518;2022-07-29T13:09:37;3.90;;;1.70;;
13693;SDS011;6919;52.344;14.518;2022-07-29T13:12:08;5.25;;;2.10;;
13693;SDS011;6919;52.344;14.518;2022-07-29T13:14:38;5.28;;;1.75;;
13693;SDS011;6919;52.344;14.518;2022-07-29T13:17:10;2.60;;;1.98;;
13693;SDS011;6919;52.344;14.518;2022-07-29T13:19:40;3.83;;;1.90;;
13693;SDS011;6919;52.344;14.518;2022-07-29T13:22:11;2.40;;;1.90;;
13693;SDS011;6919;52.344;14.518;2022-07-29T13:24:49;3.90;;;1.88;;
13693;SDS011;6919;52.344;14.518;2022-07-29T13:27:19;3.40;;;1.77;;
13693;SDS011;6919;52.344;14.518;2022-07-29T13:29:50;16.00;;;2.13;;
13693;SDS011;6919;52.344;14.518;2022-07-29T13:32:19;3.95;;;1.88;;
13693;SDS011;6919;52.344;14.518;2022-07-29T13:34:54;3.85;;;2.13;;
13693;SDS011;6919;52.344;14.518;2022-07-29T13:37:23;5.63;;;2.85;;
13693;SDS011;6919;52.344;14.518;2022-07-29T13:39:56;3.47;;;2.00;;
13693;SDS011;6919;52.344;14.518;2022-07-29T13:42:26;3.40;;;2.00;;
13693;SDS011;6919;52.344;14.518;2022-07-29T13:44:55;4.18;;;1.88;;
13693;SDS011;6919;52.344;14.518;2022-07-29T13:47:23;2.80;;;1.80;;
13693;SDS011;6919;52.344;14.518;2022-07-29T13:49:58;6.85;;;1.90;;
13693;SDS011;6919;52.344;14.518;2022-07-29T13:52:26;4.68;;;1.77;;
13693;SDS011;6919;52.344;14.518;2022-07-29T13:54:56;2.90;;;1.73;;
13693;SDS011;6919;52.344;14.518;2022-07-29T13:57:24;4.30;;;1.80;;
13693;SDS011;6919;52.344;14.518;2022-07-29T13:59:54;2.40;;;1.88;;
13693;SDS011;6919;52.344;14.518;2022-07-29T14:02:23;1.98;;;1.77;;
13693;SDS011;6919;52.344;14.518;2022-07-29T14:04:51;3.00;;;1.77;;
13693;SDS011;6919;52.344;14.518;2022-07-29T14:07:22;2.97;;;1.83;;
13693;SDS011;6919;52.344;14.518;2022-07-29T14:09:50;4.45;;;2.00;;
13693;SDS011;6919;52.344;14.518;2022-07-29T14:12:20;2.80;;;1.83;;
13693;SDS011;6919;52.344;14.518;2022-07-29T14:14:48;2.95;;;1.80;;
13693;SDS011;6919;52.344;14.518;2022-07-29T14:17:16;7.57;;;1.88;;
13693;SDS011;6919;52.344;14.518;2022-07-29T14:19:45;3.85;;;1.80;;
13693;SDS011;6919;52.344;14.518;2022-07-29T14:22:13;4.93;;;2.85;;
13693;SDS011;6919;52.344;14.518;2022-07-29T14:24:41;2.63;;;1.70;;
13693;SDS011;6919;52.344;14.518;2022-07-29T14:27:10;3.13;;;1.95;;
13693;SDS011;6919;52.344;14.518;2022-07-29T14:29:41;5.68;;;2.10;;
13693;SDS011;6919;52.344;14.518;2022-07-29T14:32:09;6.07;;;1.80;;
13693;SDS011;6919;52.344;14.518;2022-07-29T14:34:37;3.85;;;1.90;;
13693;SDS011;6919;52.344;14.518;2022-07-29T14:37:06;3.22;;;1.70;;
13693;SDS011;6919;52.344;14.518;2022-07-29T14:39:41;4.22;;;1.90;;
13693;SDS011;6919;52.344;14.518;2022-07-29T14:42:10;4.40;;;1.90;;
13693;SDS011;6919;52.344;14.518;2022-07-29T14:44:40;3.58;;;1.73;;
13693;SDS011;6919;52.344;14.518;2022-07-29T14:47:09;2.45;;;1.80;;
13693;SDS011;6919;52.344;14.518;2022-07-29T14:49:38;3.78;;;1.85;;
13693;SDS011;6919;52.344;14.518;2022-07-29T14:52:06;5.07;;;2.15;;
13693;SDS011;6919;52.344;14.518;2022-07-29T14:54:34;3.13;;;1.65;;
13693;SDS011;6919;52.344;14.518;2022-07-29T14:57:03;3.05;;;1.65;;
13693;SDS011;6919;52.344;14.518;2022-07-29T14:59:31;2.78;;;1.70;;
13693;SDS011;6919;52.344;14.518;2022-07-29T15:02:00;5.53;;;1.70;;
13693;SDS011;6919;52.344;14.518;2022-07-29T15:04:29;4.25;;;1.90;;
13693;SDS011;6919;52.344;14.518;2022-07-29T15:06:58;4.93;;;1.63;;
13693;SDS011;6919;52.344;14.518;2022-07-29T15:09:26;6.05;;;1.65;;
13693;SDS011;6919;52.344;14.518;2022-07-29T15:11:55;1.83;;;1.38;;
13693;SDS011;6919;52.344;14.518;2022-07-29T15:14:23;4.38;;;1.70;;
13693;SDS011;6919;52.344;14.518;2022-07-29T15:16:51;9.65;;;1.98;;
13693;SDS011;6919;52.344;14.518;2022-07-29T15:19:21;3.72;;;1.70;;
13693;SDS011;6919;52.344;14.518;2022-07-29T15:21:49;3.83;;;2.40;;
13693;SDS011;6919;52.344;14.518;2022-07-29T15:24:19;4.43;;;1.40;;
13693;SDS011;6919;52.344;14.518;2022-07-29T15:26:47;3.08;;;1.85;;
13693;SDS011;6919;52.344;14.518;2022-07-29T15:29:16;3.00;;;1.52;;
13693;SDS011;6919;52.344;14.518;2022-07-29T15:31:44;3.60;;;1.85;;
13693;SDS011;6919;52.344;14.518;2022-07-29T15:34:13;9.07;;;2.28;;
13693;SDS011;6919;52.344;14.518;2022-07-29T15:36:43;3.78;;;1.75;;
13693;SDS011;6919;52.344;14.518;2022-07-29T15:39:19;4.55;;;1.75;;
13693;SDS011;6919;52.344;14.518;2022-07-29T15:41:49;9.40;;;2.22;;
13693;SDS011;6919;52.344;14.518;2022-07-29T15:44:18;5.57;;;1.90;;
13693;SDS011;6919;52.344;14.518;2022-07-29T15:46:47;4.47;;;1.83;;